logo
Search for airport 
image banner adimage banner adimage banner ad
image banner ad

EI0042 - Radisson Blu Limerick Hotel

Located in Limerick, Ireland

ICAO - , IATA -

Data provided by Airmate  

General information

Coordinates: N52°40'58" W8°42'38"
Elevation is 7 feet MSL.
Magnetic variation is -2° East
View others Airports in County Limerick

Operational data

Special qualification required
Current time UTC:
Current local time:
Weather at : EINN - Shannon ( 15 km )
TAF: TAF AMD EINN 301849Z 3018/3118 33010KT 9999 FEW020 BKN035 BECMG 3114/3116 30010KT
View NOTAMs / SUP AIP / TFR affecting this airport [VIEW]
Communications frequencies: [VIEW]

Runways:

Airport contact information

Address: Limerick Ireland

Satellite view of EI0042